11R

Brenham Municipal Airport

Brenham, Texas, USA
METAR K11R 212255Z AUTO 21004KT 10SM CLR 38/19 A2993 RMK AO2 T03770188
Observed Flight Rules
Jul-21 @ 22:55 UTC (18 minutes ago) Visual Flight Rules
Wind Visibility Clouds
210° at 4 knots 10 miles
  • Clear skies
Temperatures Readings
Current 38°C / 100°F
Dewpoint 19°C / 66°F
Humidity 33%
Altimeter 29.93" Hg
Pressure 1014 hPa
Elevation 94
METAR K11R 212255Z AUTO 21004KT 10SM CLR 38/19 A2993 RMK AO2 T03770188
Observed Flight Rules
Jul-21 @ 22:55 UTC
(18 minutes ago)
VFR
Wind Visibility
210° at 4 knots 10 miles
Clouds
  • Clear skies
Temperature Dewpoint
38°C / 100°F 19°C / 66°F
Humidity Altimeter Pressure
33% 29.93" Hg 1014 hPa